Airfield :
LOGIN :

Register | Disclaimer

   EN    FR    IT 

 










Legend :    VFR   Marginal VFR   IFR   Intensive IFR   Very Intensive IFR
Visi :
Ceiling :
>= 8 km
>= 3000ft
5 to 8 km
1000 to 3000 ft
1500m to 5 km
500 to 1000 ft
800 to 1500m
200 to 500 ft
< 800m
< 200 ft
Symbols :   Thunderstorms  Fog  Heavy snow  Heavy precipitations  Wind > 20 kt
SIGMETs :     Misc.  Thunderstorms  Icing  Turbulence  Mountain Waves  Volcanic Ashes






- Airport Elevation : 276 ft
- IATA code : RBA


GMME - Rabat

CURRENT METAR :
  • 051430Z 34007KT 270V010 8000 FEW015 SCT200 26/21 Q1014 NOSIG

EXPIRED METARs :
  • 051400Z 34007KT 310V010 8000 FEW015 SCT200 25/20 Q1015 NOSIG
  • 051330Z 34007KT 290V020 8000 FEW015 SCT200 25/20 Q1015 NOSIG
  • 051300Z 33007KT 270V020 8000 FEW015 SCT200 26/20 Q1015 NOSIG
  • 051230Z 35007KT 290V040 8000 FEW015 SCT0200 25/20 Q1016 NOSIG
  • 051200Z 33006KT 230V030 8000 FEW015 SCT0200 25/19 Q1016 NOSIG

TAF TAF GMME
Valid from the 05 at 12:00 until the 06 at 18:00 UTC


051100Z 0512/0618 32010KT 8000 SCT015
TEMPO 0523/0610 VRB02KT 3000 BR BKN010



MET'MAP, your aeronautical weather chart ! - Copyright ORBIFLY December 2007 - Disclaimer

ORBIFLY MET'MAP TEAM :

Programming & Development : Alexandra Zaïnal
Concept & original design : Baudouin d'Aumeries
Assistance for programming : Marc-Olivier Méhu
Technical & hardware support : Manuel Goepfert

Contact : metmap@orbifly.com




SOURCES & CREDITS :

   NOAA